Time;durP1;ratioP1;P1;durP2;ratioP2;P2;SDS_P1;SDS_P2;PMS_P1;PMS_P2;Temp;Humidity;BMP_temperature;BMP_pressure;BME280_temperature;BME280_humidity;BME280_pressure;Samples;Min_cycle;Max_cycle;Signal;HPM_P1;HPM_P2
2023/04/06 00:00:14;;;;;;;14.48;7.53;;;;;;;4.02;60.96;100276.19;4996192;28;20049;-84
2023/04/06 00:02:41;;;;;;;12.57;8.10;;;;;;;4.05;60.16;100276.03;4995616;28;20898;-84
2023/04/06 00:05:08;;;;;;;15.52;7.90;;;;;;;4.04;60.54;100275.19;4983797;28;20042;-84
2023/04/06 00:07:34;;;;;;;14.10;8.90;;;;;;;4.05;60.06;100274.25;5030889;28;20037;-84
2023/04/06 00:10:02;;;;;;;11.85;7.65;;;;;;;4.00;59.92;100271.03;5002039;28;20052;-84
2023/04/06 00:12:29;;;;;;;13.90;8.27;;;;;;;3.94;60.73;100270.50;4994293;28;20092;-84
2023/04/06 00:14:56;;;;;;;15.38;8.50;;;;;;;3.86;61.09;100265.66;4998528;28;20041;-84
2023/04/06 00:17:23;;;;;;;13.45;7.47;;;;;;;3.81;61.24;100263.28;5014133;28;20100;-83
2023/04/06 00:19:50;;;;;;;13.40;7.55;;;;;;;3.79;61.72;100269.53;4967459;28;20045;-83
2023/04/06 00:22:16;;;;;;;12.23;7.75;;;;;;;3.79;61.96;100264.28;4996228;28;20068;-83
2023/04/06 00:24:43;;;;;;;16.73;8.48;;;;;;;3.83;61.40;100263.22;4997630;28;20049;-84
2023/04/06 00:27:10;;;;;;;11.73;7.63;;;;;;;3.86;61.49;100261.25;5027059;28;20061;-84
2023/04/06 00:29:38;;;;;;;13.10;7.85;;;;;;;3.74;61.91;100264.56;5004645;28;20057;-84
2023/04/06 00:32:05;;;;;;;14.98;8.25;;;;;;;3.78;62.05;100266.06;5030152;28;20054;-84
2023/04/06 00:34:32;;;;;;;13.68;7.78;;;;;;;3.80;61.75;100266.00;4999780;28;20048;-84
2023/04/06 00:36:59;;;;;;;16.35;9.55;;;;;;;3.69;62.40;100271.84;5011617;28;20504;-84
2023/04/06 00:39:26;;;;;;;14.77;8.43;;;;;;;3.64;62.47;100258.09;5017224;28;20053;-84
2023/04/06 00:41:53;;;;;;;12.82;7.70;;;;;;;3.65;62.22;100258.00;5011585;28;20046;-84
2023/04/06 00:44:21;;;;;;;15.93;7.85;;;;;;;3.58;62.54;100256.63;4985893;28;20046;-84
2023/04/06 00:46:48;;;;;;;15.93;7.90;;;;;;;3.55;62.73;100246.28;5014306;28;20060;-84
2023/04/06 00:49:15;;;;;;;12.48;7.68;;;;;;;3.61;62.38;100250.38;5010567;28;20049;-83
2023/04/06 00:51:41;;;;;;;19.00;8.93;;;;;;;3.58;62.48;100247.91;5012556;28;20056;-83
2023/04/06 00:54:09;;;;;;;13.20;7.00;;;;;;;3.55;62.82;100246.28;5014590;28;20045;-84
2023/04/06 00:56:36;;;;;;;12.13;7.50;;;;;;;3.53;62.52;100247.31;5008421;28;20057;-84
2023/04/06 00:59:02;;;;;;;14.55;7.82;;;;;;;3.52;62.86;100245.63;5013861;28;20135;-84
2023/04/06 01:01:32;;;;;;;16.73;7.85;;;;;;;3.59;62.60;100244.38;5002632;28;20049;-83
2023/04/06 01:04:04;;;;;;;15.27;8.57;;;;;;;3.51;62.36;100238.66;5001724;28;20860;-84
2023/04/06 01:06:38;;;;;;;14.13;8.13;;;;;;;3.48;62.38;100245.75;5012988;28;20042;-84
2023/04/06 01:09:05;;;;;;;14.48;8.30;;;;;;;3.41;62.77;100238.28;5008992;28;20462;-84
2023/04/06 01:11:33;;;;;;;14.65;7.90;;;;;;;3.48;62.69;100244.91;4980650;28;20046;-83
2023/04/06 01:14:03;;;;;;;14.02;8.07;;;;;;;3.46;62.79;100239.75;5012864;28;20473;-83
2023/04/06 01:17:02;;;;;;;16.88;7.70;;;;;;;3.44;62.68;100238.97;4990034;28;20065;-84
2023/04/06 01:19:32;;;;;;;15.45;8.25;;;;;;;3.47;62.30;100238.81;5008710;28;20054;-83
2023/04/06 01:22:00;;;;;;;13.05;8.32;;;;;;;3.46;62.63;100241.50;5000827;28;20069;-84
2023/04/06 01:24:29;;;;;;;15.13;8.45;;;;;;;3.38;63.15;100235.81;4994984;28;20038;-84
2023/04/06 01:27:02;;;;;;;15.05;8.23;;;;;;;3.34;63.23;100237.78;5012923;28;20049;-84
2023/04/06 01:29:42;;;;;;;16.17;9.63;;;;;;;3.34;62.98;100231.69;5001496;28;20060;-84
2023/04/06 01:32:11;;;;;;;13.40;8.27;;;;;;;3.40;62.97;100229.56;4996723;28;20046;-84
2023/04/06 01:34:46;;;;;;;13.50;7.82;;;;;;;3.47;62.88;100235.34;5010894;28;20065;-84
2023/04/06 01:37:13;;;;;;;13.00;8.07;;;;;;;3.45;63.09;100227.53;5012285;28;20046;-83
2023/04/06 01:39:41;;;;;;;13.27;7.90;;;;;;;3.40;63.65;100231.34;5011898;28;20038;-84
2023/04/06 01:42:11;;;;;;;15.82;8.02;;;;;;;3.39;63.13;100227.88;5010100;28;20159;-84
2023/04/06 01:44:39;;;;;;;16.60;8.50;;;;;;;3.43;63.22;100229.41;5003003;28;20401;-84
2023/04/06 01:47:10;;;;;;;17.55;7.28;;;;;;;3.36;63.25;100230.66;5018728;28;20045;-84
2023/04/06 01:49:37;;;;;;;12.73;8.20;;;;;;;3.41;63.20;100230.41;4995960;28;20049;-84
2023/04/06 01:52:05;;;;;;;16.48;8.82;;;;;;;3.38;63.04;100220.91;4995407;28;20045;-84
2023/04/06 01:54:34;;;;;;;13.02;7.65;;;;;;;3.29;63.68;100231.06;4983024;28;20141;-84
2023/04/06 01:57:16;;;;;;;17.73;8.63;;;;;;;3.28;64.00;100222.31;5021247;28;20056;-84
2023/04/06 01:59:56;;;;;;;14.27;8.45;;;;;;;3.28;63.83;100224.09;4993099;28;20501;-84
2023/04/06 02:02:39;;;;;;;13.10;7.72;;;;;;;3.28;63.43;100224.94;5002747;28;20049;-84
2023/04/06 02:05:12;;;;;;;13.98;7.85;;;;;;;3.26;63.15;100217.19;4998245;28;20068;-84
2023/04/06 02:07:40;;;;;;;12.90;7.22;;;;;;;3.16;63.91;100225.59;4979315;28;20046;-84
2023/04/06 02:10:12;;;;;;;11.55;8.18;;;;;;;3.06;64.20;100219.97;5014593;28;20504;-84
2023/04/06 02:12:39;;;;;;;14.15;7.63;;;;;;;3.23;63.54;100226.97;5010760;28;20050;-84
2023/04/06 02:15:09;;;;;;;14.02;8.60;;;;;;;3.18;63.24;100221.97;4999927;28;20057;-83
2023/04/06 02:17:36;;;;;;;14.60;9.05;;;;;;;3.24;63.31;100224.28;4986701;28;20523;-83
2023/04/06 02:20:04;;;;;;;15.07;8.43;;;;;;;3.18;63.44;100214.09;4981201;28;20116;-83
2023/04/06 02:22:31;;;;;;;18.15;8.63;;;;;;;3.14;63.78;100219.59;4997898;28;20045;-83
2023/04/06 02:24:58;;;;;;;14.75;8.27;;;;;;;3.09;63.73;100221.59;5018153;28;20061;-83
2023/04/06 02:27:25;;;;;;;12.50;8.27;;;;;;;3.05;63.94;100220.88;5023509;28;20050;-83
2023/04/06 02:29:52;;;;;;;15.15;8.07;;;;;;;3.03;63.98;100209.66;5025727;28;20076;-83
2023/04/06 02:32:19;;;;;;;14.85;9.07;;;;;;;3.01;64.21;100217.59;4978292;28;20053;-83
2023/04/06 02:34:47;;;;;;;13.40;8.63;;;;;;;3.04;63.83;100214.81;4996694;28;20152;-83
2023/04/06 02:37:17;;;;;;;11.98;7.05;;;;;;;3.00;63.77;100207.16;4994719;28;20056;-84
2023/04/06 02:39:44;;;;;;;14.00;8.40;;;;;;;2.94;64.46;100213.56;5014954;28;20390;-84
2023/04/06 02:42:12;;;;;;;12.27;8.05;;;;;;;2.97;64.54;100209.94;4987159;28;20567;-84
2023/04/06 02:44:39;;;;;;;13.38;8.05;;;;;;;2.93;64.65;100211.88;5015843;28;20046;-83
2023/04/06 02:47:07;;;;;;;13.88;8.55;;;;;;;2.93;64.10;100205.81;5006764;28;20083;-84
2023/04/06 02:49:36;;;;;;;15.50;8.55;;;;;;;3.04;63.67;100203.47;4989377;28;20045;-83
2023/04/06 02:52:03;;;;;;;20.10;8.57;;;;;;;2.98;63.78;100207.25;4997487;28;20072;-84
2023/04/06 02:54:33;;;;;;;17.30;8.73;;;;;;;2.96;64.07;100203.00;4983078;28;20156;-83
2023/04/06 02:57:01;;;;;;;17.35;8.30;;;;;;;2.94;63.58;100204.88;4980933;28;20056;-84
2023/04/06 02:59:36;;;;;;;15.15;7.95;;;;;;;3.05;63.34;100205.16;4983912;28;20361;-83
2023/04/06 03:02:10;;;;;;;16.27;8.30;;;;;;;2.93;64.08;100206.63;4995182;28;20128;-83
2023/04/06 03:04:37;;;;;;;16.00;7.40;;;;;;;2.89;64.32;100212.97;4980376;28;20054;-83
2023/04/06 03:07:09;;;;;;;12.35;7.40;;;;;;;2.90;64.32;100206.81;5009264;28;20788;-83
2023/04/06 03:09:38;;;;;;;12.02;7.68;;;;;;;2.85;64.74;100200.94;4996192;28;20123;-83
2023/04/06 03:12:05;;;;;;;11.25;7.75;;;;;;;2.71;64.90;100206.03;4990129;28;20493;-83
2023/04/06 03:14:47;;;;;;;15.43;7.80;;;;;;;2.79;64.86;100207.31;4993176;28;20662;-83
2023/04/06 03:17:15;;;;;;;16.15;8.60;;;;;;;2.77;64.49;100213.56;5003303;28;20675;-83
2023/04/06 03:19:42;;;;;;;15.20;7.68;;;;;;;2.80;63.82;100211.66;5008994;28;20057;-83
2023/04/06 03:22:10;;;;;;;13.57;7.30;;;;;;;2.77;64.46;100209.19;5000977;28;20045;-83
2023/04/06 03:24:38;;;;;;;14.10;7.90;;;;;;;2.73;64.59;100206.81;4976737;28;20050;-83
2023/04/06 03:27:06;;;;;;;13.75;8.27;;;;;;;2.70;64.42;100209.59;5002047;28;20134;-83
2023/04/06 03:29:34;;;;;;;14.70;7.88;;;;;;;2.74;64.70;100216.34;4992238;28;20049;-83
2023/04/06 03:32:02;;;;;;;14.00;8.35;;;;;;;2.67;64.57;100210.59;4962675;28;20045;-84
2023/04/06 03:34:36;;;;;;;19.10;9.23;;;;;;;2.68;64.54;100219.28;4995989;28;20049;-83
2023/04/06 03:37:02;;;;;;;14.80;7.75;;;;;;;2.68;64.39;100216.66;4997620;28;20049;-83
2023/04/06 03:39:41;;;;;;;13.43;8.20;;;;;;;2.69;64.58;100220.97;5002737;28;20111;-83
2023/04/06 03:42:10;;;;;;;15.45;8.57;;;;;;;2.61;64.57;100222.19;4980772;28;20052;-83
2023/04/06 03:44:43;;;;;;;14.27;8.77;;;;;;;2.60;64.87;100223.13;4989139;28;20425;-83
2023/04/06 03:47:10;;;;;;;13.55;8.25;;;;;;;2.63;64.71;100219.50;4995183;28;20056;-84
2023/04/06 03:49:37;;;;;;;13.73;7.40;;;;;;;2.60;64.60;100225.75;4972352;28;20050;-85
2023/04/06 03:52:08;;;;;;;16.35;8.15;;;;;;;2.54;64.97;100227.81;4992761;28;20786;-85
2023/04/06 03:54:35;;;;;;;13.25;8.48;;;;;;;2.48;64.97;100228.13;4999547;28;20058;-85
2023/04/06 03:57:02;;;;;;;12.80;7.90;;;;;;;2.51;64.92;100222.72;4987459;28;20085;-85
2023/04/06 03:59:28;;;;;;;18.05;8.23;;;;;;;2.45;65.09;100226.50;4996286;28;20559;-85
2023/04/06 04:01:55;;;;;;;13.30;7.70;;;;;;;2.46;65.25;100227.34;5015809;28;20750;-85
2023/04/06 04:04:22;;;;;;;12.55;8.18;;;;;;;2.47;65.23;100231.66;4985691;28;20057;-84
2023/04/06 04:06:50;;;;;;;13.50;8.27;;;;;;;2.51;65.09;100233.22;4995093;28;20576;-84
2023/04/06 04:09:17;;;;;;;12.18;7.60;;;;;;;2.46;65.64;100230.81;5011434;28;20111;-85
2023/04/06 04:11:44;;;;;;;12.55;7.97;;;;;;;2.34;65.85;100232.28;5008539;28;20100;-84
2023/04/06 04:14:11;;;;;;;15.52;7.97;;;;;;;2.35;65.65;100236.59;5025744;28;20539;-83
2023/04/06 04:16:39;;;;;;;12.30;7.53;;;;;;;2.32;65.86;100236.72;4995888;28;20049;-84
2023/04/06 04:19:06;;;;;;;14.38;7.78;;;;;;;2.32;65.83;100235.91;5004836;28;20053;-84
2023/04/06 04:21:33;;;;;;;13.18;7.93;;;;;;;2.39;65.67;100239.91;4971070;28;20563;-83
2023/04/06 04:24:06;;;;;;;15.30;8.10;;;;;;;2.31;66.07;100232.41;5011533;28;20118;-84
2023/04/06 04:26:35;;;;;;;15.43;8.50;;;;;;;2.31;65.98;100232.41;5008535;28;20072;-84
2023/04/06 04:29:02;;;;;;;15.20;8.05;;;;;;;2.29;65.97;100238.63;5019551;28;20052;-84
2023/04/06 04:31:29;;;;;;;13.75;7.65;;;;;;;2.28;65.80;100244.81;4994304;28;20115;-85
2023/04/06 04:34:00;;;;;;;17.52;8.77;;;;;;;2.31;65.73;100237.63;4978281;28;20060;-83
2023/04/06 04:36:30;;;;;;;14.10;7.70;;;;;;;2.24;65.97;100244.13;4970799;28;20054;-82
2023/04/06 04:39:01;;;;;;;12.63;7.43;;;;;;;2.26;65.85;100242.25;4993588;28;20124;-81
2023/04/06 04:41:31;;;;;;;12.60;8.48;;;;;;;2.18;66.01;100247.00;5002662;28;20068;-81
2023/04/06 04:43:59;;;;;;;13.45;8.05;;;;;;;2.21;66.04;100246.00;5027970;28;20057;-82
2023/04/06 04:46:26;;;;;;;11.95;8.52;;;;;;;2.17;66.04;100240.94;4996113;28;20076;-82
2023/04/06 04:48:53;;;;;;;14.68;7.47;;;;;;;2.14;66.23;100241.09;4998246;28;20116;-82
2023/04/06 04:51:20;;;;;;;14.43;7.85;;;;;;;2.22;66.31;100248.56;5011819;28;20050;-81
2023/04/06 04:54:04;;;;;;;11.38;7.40;;;;;;;2.16;66.25;100249.72;4999137;28;20057;-82
2023/04/06 04:56:32;;;;;;;13.55;7.30;;;;;;;2.24;66.12;100246.75;4995929;28;20652;-82
2023/04/06 04:59:09;;;;;;;13.00;7.57;;;;;;;2.19;66.33;100243.50;4982712;28;20049;-82
2023/04/06 05:01:39;;;;;;;14.50;8.32;;;;;;;2.17;66.18;100247.94;5012787;28;20111;-81
2023/04/06 05:04:21;;;;;;;13.77;8.90;;;;;;;2.18;66.29;100252.25;4991769;28;20486;-82
2023/04/06 05:06:48;;;;;;;13.73;7.97;;;;;;;2.16;66.14;100254.09;4993153;28;20367;-81
2023/04/06 05:09:17;;;;;;;12.77;8.07;;;;;;;2.16;66.30;100256.72;4978571;28;20045;-81
2023/04/06 05:11:45;;;;;;;12.80;8.68;;;;;;;2.10;66.68;100257.84;4997273;28;20045;-82
2023/04/06 05:14:12;;;;;;;16.42;8.43;;;;;;;2.11;67.06;100263.94;5000897;28;21072;-82
2023/04/06 05:16:38;;;;;;;14.70;8.50;;;;;;;2.25;66.34;100269.38;5001720;28;20103;-82
2023/04/06 05:19:06;;;;;;;11.80;7.43;;;;;;;2.21;66.30;100266.97;4997341;28;20066;-82
2023/04/06 05:21:39;;;;;;;13.50;8.40;;;;;;;2.18;66.17;100268.81;4979639;28;20046;-82
2023/04/06 05:24:07;;;;;;;14.48;7.78;;;;;;;2.31;66.19;100270.88;4999311;28;20056;-82
2023/04/06 05:26:35;;;;;;;17.25;8.35;;;;;;;2.30;66.28;100272.63;4995345;28;20050;-82
2023/04/06 05:29:07;;;;;;;14.52;8.43;;;;;;;2.33;65.58;100267.25;5009854;28;20037;-82
2023/04/06 05:31:36;;;;;;;16.20;8.70;;;;;;;2.34;65.35;100278.56;4998217;28;20057;-81
2023/04/06 05:34:03;;;;;;;14.57;9.20;;;;;;;2.45;65.16;100271.06;5011007;28;20099;-82
2023/04/06 05:36:33;;;;;;;16.15;9.18;;;;;;;2.48;65.06;100268.28;5011825;28;20038;-82
2023/04/06 05:39:07;;;;;;;15.00;8.40;;;;;;;2.52;65.01;100280.34;5008220;28;20057;-82
2023/04/06 05:41:42;;;;;;;15.25;8.88;;;;;;;2.52;65.02;100274.22;4966721;28;20073;-81
2023/04/06 05:44:10;;;;;;;13.57;8.85;;;;;;;2.45;64.77;100284.16;4994163;28;20077;-81
2023/04/06 05:46:40;;;;;;;15.07;9.18;;;;;;;2.53;64.86;100278.56;4997812;28;20404;-81
2023/04/06 05:49:12;;;;;;;16.52;9.43;;;;;;;2.54;64.78;100275.00;5008230;28;20462;-82
2023/04/06 05:51:39;;;;;;;17.75;9.68;;;;;;;2.51;64.49;100281.25;4980225;28;20045;-82
2023/04/06 05:54:06;;;;;;;13.05;8.98;;;;;;;2.55;64.22;100271.47;5009672;28;20112;-81
2023/04/06 05:56:34;;;;;;;15.05;9.27;;;;;;;2.52;64.62;100284.72;4995707;28;20057;-81
2023/04/06 05:59:01;;;;;;;17.17;9.68;;;;;;;2.64;64.24;100283.28;4994584;28;20053;-81
2023/04/06 06:01:30;;;;;;;15.48;8.63;;;;;;;2.63;63.79;100286.84;4997042;28;20057;-81
2023/04/06 06:03:57;;;;;;;15.23;9.05;;;;;;;2.70;63.82;100285.63;4993494;28;20168;-81
2023/04/06 06:06:30;;;;;;;15.82;9.77;;;;;;;2.63;63.74;100285.06;5000443;28;20054;-82
2023/04/06 06:09:09;;;;;;;14.38;8.88;;;;;;;2.73;63.57;100288.94;4978896;28;20049;-81
2023/04/06 06:11:43;;;;;;;21.60;9.93;;;;;;;2.67;63.79;100289.25;5012341;28;20071;-81
2023/04/06 06:14:13;;;;;;;17.23;9.40;;;;;;;2.68;63.72;100290.94;4967403;28;21517;-81
2023/04/06 06:16:41;;;;;;;16.23;9.32;;;;;;;2.79;63.92;100293.03;4990368;28;20068;-81
2023/04/06 06:19:10;;;;;;;16.27;9.63;;;;;;;2.77;63.81;100297.50;4979609;28;20045;-81
2023/04/06 06:21:38;;;;;;;17.88;9.18;;;;;;;2.83;63.62;100291.97;5001477;28;20140;-81
2023/04/06 06:24:07;;;;;;;18.23;10.18;;;;;;;2.90;63.66;100282.00;4998673;28;20111;-81
2023/04/06 06:26:36;;;;;;;17.60;9.63;;;;;;;2.95;63.33;100291.34;4979791;28;20078;-82
2023/04/06 06:29:05;;;;;;;15.63;9.52;;;;;;;2.99;63.38;100287.63;4993750;28;20074;-82
2023/04/06 06:31:35;;;;;;;15.48;9.38;;;;;;;3.08;63.48;100290.72;5015268;28;20049;-82
2023/04/06 06:34:02;;;;;;;15.27;9.43;;;;;;;3.05;64.18;100283.84;4998048;28;20059;-81
2023/04/06 06:36:31;;;;;;;14.52;9.70;;;;;;;3.23;63.48;100289.94;4980657;28;20049;-81
2023/04/06 06:39:00;;;;;;;16.77;9.95;;;;;;;3.13;63.42;100291.34;5006438;28;20053;-81
2023/04/06 06:41:27;;;;;;;16.55;9.75;;;;;;;3.28;63.51;100287.94;5015037;28;20073;-81
2023/04/06 06:43:54;;;;;;;15.23;9.15;;;;;;;3.34;63.04;100292.06;5005674;28;20056;-81
2023/04/06 06:46:21;;;;;;;22.10;9.75;;;;;;;3.25;62.92;100291.56;5011410;28;20062;-82
2023/04/06 06:48:48;;;;;;;18.60;9.02;;;;;;;3.18;63.37;100291.97;4998249;28;20055;-82
2023/04/06 06:51:15;;;;;;;22.05;10.13;;;;;;;3.37;62.94;100286.63;4978980;28;20045;-81
2023/04/06 06:53:42;;;;;;;14.80;9.38;;;;;;;3.32;63.31;100286.88;4995370;28;20477;-81
2023/04/06 06:56:10;;;;;;;15.05;8.90;;;;;;;3.33;63.52;100287.72;5009161;28;20054;-82
2023/04/06 06:58:37;;;;;;;17.92;10.07;;;;;;;3.41;62.95;100283.78;4982649;28;20045;-82
2023/04/06 07:01:04;;;;;;;14.50;9.57;;;;;;;3.42;63.28;100298.59;5010756;28;20046;-82
2023/04/06 07:03:32;;;;;;;16.98;9.98;;;;;;;3.56;63.00;100287.38;4978566;28;20052;-81
2023/04/06 07:05:59;;;;;;;20.67;10.30;;;;;;;3.50;62.03;100285.06;4987726;28;20532;-81
2023/04/06 07:08:26;;;;;;;19.13;11.20;;;;;;;3.69;61.76;100285.81;5000379;28;20063;-81
2023/04/06 07:10:55;;;;;;;18.10;10.23;;;;;;;3.74;61.85;100279.44;5009450;28;20046;-82
2023/04/06 07:13:23;;;;;;;19.08;9.68;;;;;;;3.78;61.25;100283.63;4999170;28;20651;-82
2023/04/06 07:15:52;;;;;;;18.48;10.20;;;;;;;3.86;60.52;100289.31;5001566;28;20050;-81
2023/04/06 07:18:19;;;;;;;18.77;10.15;;;;;;;3.91;60.53;100280.25;5013180;28;20053;-81
2023/04/06 07:20:46;;;;;;;19.52;11.10;;;;;;;3.99;60.46;100279.00;4966510;28;20054;-81
2023/04/06 07:23:14;;;;;;;22.05;11.13;;;;;;;4.08;60.37;100284.59;4979118;28;20080;-82
2023/04/06 07:25:41;;;;;;;22.80;10.45;;;;;;;4.17;60.58;100283.25;4978429;28;20753;-82
2023/04/06 07:28:09;;;;;;;21.58;11.32;;;;;;;4.20;60.48;100280.47;5005885;28;20497;-82
2023/04/06 07:30:37;;;;;;;18.58;9.80;;;;;;;4.31;60.75;100287.75;5025564;28;20050;-82
2023/04/06 07:33:05;;;;;;;18.15;10.50;;;;;;;4.41;60.76;100282.84;4978922;28;20108;-82
2023/04/06 07:35:36;;;;;;;20.05;10.65;;;;;;;4.45;60.98;100281.72;4981372;28;20567;-82
2023/04/06 07:38:04;;;;;;;20.75;10.65;;;;;;;4.50;60.70;100284.94;4978724;28;20154;-81
2023/04/06 07:40:32;;;;;;;17.90;10.10;;;;;;;4.53;60.66;100282.16;4995293;28;20149;-81
2023/04/06 07:42:59;;;;;;;17.58;10.27;;;;;;;4.57;60.73;100278.41;5017960;28;20092;-82
2023/04/06 07:45:26;;;;;;;15.35;9.93;;;;;;;4.65;60.82;100289.34;4989451;28;20387;-82
2023/04/06 07:47:53;;;;;;;17.95;10.30;;;;;;;4.68;60.61;100289.19;5007529;28;20060;-82
2023/04/06 07:50:21;;;;;;;17.50;10.73;;;;;;;4.71;60.65;100281.09;5011620;28;20484;-82
2023/04/06 07:52:48;;;;;;;22.65;11.45;;;;;;;4.74;61.04;100274.81;5014665;28;20379;-82
2023/04/06 07:55:15;;;;;;;17.15;11.60;;;;;;;4.81;61.21;100277.94;4992477;28;20050;-81
2023/04/06 07:57:42;;;;;;;20.85;11.27;;;;;;;4.85;61.38;100275.03;5006677;28;20042;-83
2023/04/06 08:00:10;;;;;;;22.55;11.20;;;;;;;4.83;61.47;100282.16;5017323;28;20331;-82
2023/04/06 08:02:39;;;;;;;19.80;11.75;;;;;;;4.84;61.00;100277.78;5011207;28;20045;-82
2023/04/06 08:05:07;;;;;;;19.33;12.07;;;;;;;4.90;60.80;100266.88;5027183;28;20061;-82
2023/04/06 08:07:34;;;;;;;22.80;12.13;;;;;;;4.97;60.80;100273.50;5008200;28;20054;-82
2023/04/06 08:10:01;;;;;;;22.75;11.93;;;;;;;4.95;60.59;100272.72;4994900;28;20037;-82
2023/04/06 08:12:27;;;;;;;23.48;13.05;;;;;;;5.02;60.56;100265.34;4996982;28;20758;-82
2023/04/06 08:14:55;;;;;;;21.48;11.68;;;;;;;5.08;59.74;100276.34;4986104;28;20049;-82
2023/04/06 08:17:21;;;;;;;22.67;12.40;;;;;;;5.15;59.96;100271.56;5011399;28;20042;-81
2023/04/06 08:19:49;;;;;;;21.75;12.00;;;;;;;5.19;59.79;100268.69;5002663;28;20397;-82
2023/04/06 08:22:16;;;;;;;21.40;10.68;;;;;;;5.24;59.87;100265.78;4996350;28;20123;-82
2023/04/06 08:24:42;;;;;;;19.17;10.73;;;;;;;5.25;59.63;100264.81;5011696;28;20503;-82
2023/04/06 08:27:09;;;;;;;22.38;12.30;;;;;;;5.27;59.80;100268.22;5029958;28;20544;-82
2023/04/06 08:29:36;;;;;;;17.80;10.40;;;;;;;5.32;60.32;100260.91;4987207;28;20045;-82
2023/04/06 08:32:04;;;;;;;21.27;11.68;;;;;;;5.41;60.06;100267.38;5010082;28;20542;-82
2023/04/06 08:34:34;;;;;;;21.42;12.38;;;;;;;5.43;60.03;100266.34;5027539;28;20051;-82
2023/04/06 08:37:01;;;;;;;22.05;12.57;;;;;;;5.48;60.00;100257.34;4995239;28;20057;-81
2023/04/06 08:39:30;;;;;;;19.95;11.38;;;;;;;5.55;59.92;100263.94;5007174;28;20142;-82
2023/04/06 08:41:59;;;;;;;21.65;11.93;;;;;;;5.59;59.73;100260.16;4990225;28;20561;-82
2023/04/06 08:44:26;;;;;;;18.48;11.52;;;;;;;5.61;59.63;100259.13;5026491;28;20426;-82
2023/04/06 08:46:54;;;;;;;22.70;12.40;;;;;;;5.67;59.64;100260.53;5027393;28;20103;-81
2023/04/06 08:49:21;;;;;;;19.52;11.35;;;;;;;5.68;59.53;100253.50;5026942;28;20045;-82
2023/04/06 08:51:48;;;;;;;20.17;11.70;;;;;;;5.74;59.54;100256.56;4986103;28;20045;-81
2023/04/06 08:54:15;;;;;;;21.50;12.52;;;;;;;5.80;59.48;100253.56;5017643;28;20054;-81
2023/04/06 08:56:42;;;;;;;18.33;10.98;;;;;;;5.80;59.59;100248.31;5004760;28;20050;-82
2023/04/06 08:59:09;;;;;;;18.20;11.80;;;;;;;5.86;59.28;100254.97;5013144;28;20050;-82
2023/04/06 09:01:41;;;;;;;19.70;10.90;;;;;;;5.88;58.75;100245.19;5010801;28;20385;-81
2023/04/06 09:04:10;;;;;;;23.10;10.75;;;;;;;5.91;58.91;100242.38;5003866;28;20049;-82
2023/04/06 09:06:40;;;;;;;16.55;10.43;;;;;;;5.93;58.64;100245.75;4983061;28;20045;-82
2023/04/06 09:09:07;;;;;;;16.33;10.20;;;;;;;5.98;57.90;100246.34;5010432;28;20070;-81
2023/04/06 09:11:48;;;;;;;20.55;10.45;;;;;;;5.97;56.45;100241.16;4981299;28;20612;-82
2023/04/06 09:14:16;;;;;;;18.08;10.25;;;;;;;6.06;57.47;100243.22;4989636;28;20042;-82
2023/04/06 09:16:45;;;;;;;21.65;10.38;;;;;;;6.08;56.98;100236.91;4993949;28;20133;-81
2023/04/06 09:19:13;;;;;;;16.33;9.48;;;;;;;6.14;57.05;100238.31;5009621;28;20048;-82
2023/04/06 09:21:40;;;;;;;16.20;9.63;;;;;;;6.17;56.53;100235.47;4995232;28;20058;-82
2023/04/06 09:24:08;;;;;;;21.23;10.10;;;;;;;6.19;56.32;100232.75;5023775;28;20038;-82
2023/04/06 09:26:46;;;;;;;22.65;9.05;;;;;;;6.25;56.24;100229.69;4965822;28;20049;-82
2023/04/06 09:29:26;;;;;;;18.27;10.05;;;;;;;6.27;55.61;100228.66;5011012;28;20046;-82
2023/04/06 09:32:05;;;;;;;15.40;9.02;;;;;;;6.32;55.58;100224.88;4990595;28;20048;-81
2023/04/06 09:34:33;;;;;;;16.75;9.55;;;;;;;6.37;56.11;100222.81;4991765;28;20054;-81
2023/04/06 09:37:00;;;;;;;18.45;10.07;;;;;;;6.42;56.32;100229.47;4994770;28;20049;-83
2023/04/06 09:39:26;;;;;;;16.88;10.13;;;;;;;6.43;56.19;100220.59;5011636;28;20144;-82
2023/04/06 09:41:55;;;;;;;17.38;10.15;;;;;;;6.44;56.17;100214.41;5013190;28;20534;-81
2023/04/06 09:44:23;;;;;;;18.40;10.40;;;;;;;6.53;56.25;100223.47;5027832;28;20501;-82
2023/04/06 09:46:51;;;;;;;19.77;10.40;;;;;;;6.57;56.97;100219.72;5008529;28;20485;-82
2023/04/06 09:49:33;;;;;;;16.80;11.32;;;;;;;6.62;56.43;100214.13;5024754;28;20050;-82
2023/04/06 09:52:00;;;;;;;;;;;;;;;6.63;56.76;100208.75;5012202;28;20050;-82
2023/04/06 09:54:30;;;;;;;18.63;10.18;;;;;;;6.72;56.83;100208.13;4979589;28;19929;-81
2023/04/06 09:57:00;;;;;;;20.70;9.88;;;;;;;6.71;56.11;100211.72;5013619;28;20074;-82
2023/04/06 09:59:30;;;;;;;21.80;11.65;;;;;;;6.76;56.29;100208.78;5008880;28;20054;-82
2023/04/06 10:01:58;;;;;;;20.40;10.95;;;;;;;6.81;56.25;100203.19;4997511;28;20524;-82
2023/04/06 10:04:39;;;;;;;18.00;10.77;;;;;;;6.84;56.30;100205.63;4999802;28;20061;-82
2023/04/06 10:07:06;;;;;;;25.65;11.00;;;;;;;6.91;56.81;100213.03;4990982;28;20370;-82
2023/04/06 10:09:35;;;;;;;19.00;9.95;;;;;;;6.95;56.76;100203.13;4991998;28;20120;-82
2023/04/06 10:12:04;;;;;;;17.05;10.20;;;;;;;6.98;56.80;100202.91;4979421;28;20050;-82
2023/04/06 10:14:37;;;;;;;18.27;10.93;;;;;;;6.99;56.65;100201.94;4991217;28;20049;-82
2023/04/06 10:17:04;;;;;;;20.73;10.30;;;;;;;7.01;56.71;100193.94;4993830;28;20100;-82
2023/04/06 10:19:44;;;;;;;17.23;9.57;;;;;;;7.02;56.70;100201.75;5023317;28;20088;-82
2023/04/06 10:22:15;;;;;;;19.80;10.70;;;;;;;7.05;56.88;100190.97;4981565;28;20164;-82
2023/04/06 10:24:42;;;;;;;18.98;10.20;;;;;;;7.09;56.79;100192.44;4993681;28;20054;-82
2023/04/06 10:27:10;;;;;;;17.15;9.65;;;;;;;7.15;56.97;100192.03;5009947;28;20050;-82
2023/04/06 10:29:48;;;;;;;16.83;9.27;;;;;;;7.21;56.09;100193.41;5007163;28;20557;-82
2023/04/06 10:32:15;;;;;;;19.45;10.70;;;;;;;7.23;56.61;100173.03;5000467;28;20042;-81
2023/04/06 10:34:42;;;;;;;21.00;9.45;;;;;;;7.30;55.93;100184.00;5000041;28;20050;-82
2023/04/06 10:37:16;;;;;;;16.52;8.63;;;;;;;7.31;54.75;100183.06;4991256;28;20053;-81
2023/04/06 10:39:55;;;;;;;26.02;9.95;;;;;;;7.33;53.51;100178.53;5008767;28;20046;-82
2023/04/06 10:42:25;;;;;;;17.10;8.93;;;;;;;7.40;54.56;100185.06;4997581;28;20077;-82
2023/04/06 10:44:52;;;;;;;16.08;8.50;;;;;;;7.44;54.72;100181.25;5010179;28;20052;-82
2023/04/06 10:47:19;;;;;;;17.60;8.77;;;;;;;7.48;54.18;100179.22;4978363;28;20053;-82
2023/04/06 10:49:46;;;;;;;15.25;7.80;;;;;;;7.54;54.31;100171.72;4968413;28;20045;-82
2023/04/06 10:52:13;;;;;;;16.80;8.65;;;;;;;7.57;54.18;100175.94;5012315;28;20050;-82
2023/04/06 10:54:43;;;;;;;17.75;8.73;;;;;;;7.61;52.85;100174.78;5009004;28;20173;-82
2023/04/06 10:57:10;;;;;;;14.88;8.85;;;;;;;7.61;53.34;100167.69;5006264;28;20046;-82
2023/04/06 10:59:42;;;;;;;17.75;9.38;;;;;;;7.65;53.11;100163.03;4977640;28;20065;-82
2023/04/06 11:02:08;;;;;;;18.00;9.48;;;;;;;7.69;53.70;100161.88;5000587;28;20061;-82
2023/04/06 11:04:35;;;;;;;19.27;9.10;;;;;;;7.72;53.19;100166.94;5010783;28;20382;-82
2023/04/06 11:07:02;;;;;;;15.27;8.93;;;;;;;7.78;53.22;100163.00;5023476;28;20497;-82
2023/04/06 11:09:31;;;;;;;17.33;9.63;;;;;;;7.81;53.14;100158.34;5009852;28;20045;-83
2023/04/06 11:11:58;;;;;;;14.70;8.57;;;;;;;7.85;53.03;100163.41;5022432;28;20064;-82
2023/04/06 11:14:26;;;;;;;16.38;9.15;;;;;;;7.90;52.32;100158.66;5021603;28;20033;-82
2023/04/06 11:16:53;;;;;;;14.10;8.02;;;;;;;7.91;52.41;100165.59;5004494;28;20583;-82
2023/04/06 11:19:20;;;;;;;14.10;8.40;;;;;;;7.97;51.97;100157.25;5022067;28;20052;-83
2023/04/06 11:21:48;;;;;;;17.60;9.15;;;;;;;7.97;51.77;100152.81;5000304;28;20053;-82
2023/04/06 11:24:15;;;;;;;18.85;9.52;;;;;;;7.97;51.75;100158.09;5021711;28;20128;-82
2023/04/06 11:26:52;;;;;;;16.00;9.02;;;;;;;7.97;51.09;100150.16;4989975;28;20050;-82
2023/04/06 11:29:27;;;;;;;18.25;9.10;;;;;;;8.04;51.78;100148.75;4991334;28;20123;-82
2023/04/06 11:31:59;;;;;;;15.02;8.75;;;;;;;8.07;50.66;100149.50;5024054;28;20508;-83